createdAt,value
2018-12-17T00:00:16.524Z,960.20
2018-12-17T00:01:16.532Z,960.20
2018-12-17T00:02:16.310Z,960.26
2018-12-17T00:04:52.602Z,960.29
2018-12-17T00:05:48.945Z,960.30
2018-12-17T00:06:48.357Z,960.32
2018-12-17T00:07:50.088Z,960.33
2018-12-17T00:10:35.663Z,960.33
2018-12-17T00:12:56.608Z,960.34
2018-12-17T00:19:51.434Z,960.44
2018-12-17T00:21:28.608Z,960.45
2018-12-17T00:22:28.728Z,960.42
2018-12-17T00:24:26.890Z,960.47
2018-12-17T00:25:22.366Z,960.42
2018-12-17T00:26:22.413Z,960.38
2018-12-17T00:27:26.095Z,960.38
2018-12-17T00:28:23.894Z,960.41
2018-12-17T00:29:23.403Z,960.42
2018-12-17T00:30:24.097Z,960.41
2018-12-17T00:31:24.083Z,960.37
2018-12-17T00:32:23.721Z,960.36
2018-12-17T00:33:34.703Z,960.40
2018-12-17T00:35:30.053Z,960.36
2018-12-17T00:36:43.678Z,960.36
2018-12-17T00:40:39.562Z,960.38
2018-12-17T00:41:31.074Z,960.35
2018-12-17T00:42:31.042Z,960.41
2018-12-17T00:45:25.247Z,960.39
2018-12-17T00:48:48.361Z,960.41
2018-12-17T00:48:59.586Z,960.41
2018-12-17T00:51:52.648Z,960.39
2018-12-17T00:53:00.872Z,960.42
2018-12-17T00:54:50.903Z,960.44
2018-12-17T00:55:45.775Z,960.45
2018-12-17T00:56:46.275Z,960.47
2018-12-17T00:57:46.175Z,960.46
2018-12-17T00:58:45.702Z,960.48
2018-12-17T00:59:47.537Z,960.48
2018-12-17T01:00:47.557Z,960.49
2018-12-17T01:01:46.508Z,960.48
2018-12-17T01:02:45.617Z,960.52
2018-12-17T01:03:47.249Z,960.50
2018-12-17T01:04:48.220Z,960.49
2018-12-17T01:05:47.307Z,960.52
2018-12-17T01:06:47.324Z,960.59
2018-12-17T01:07:45.362Z,960.60
2018-12-17T01:08:45.187Z,960.58
2018-12-17T01:09:45.233Z,960.61
2018-12-17T01:10:46.344Z,960.61
2018-12-17T01:11:45.309Z,960.61
2018-12-17T01:12:45.351Z,960.62
2018-12-17T01:13:45.331Z,960.64
2018-12-17T01:14:46.463Z,960.62
2018-12-17T01:15:46.696Z,960.66
2018-12-17T01:16:46.695Z,960.66
2018-12-17T01:17:46.899Z,960.65
2018-12-17T01:18:48.740Z,960.66
2018-12-17T01:19:46.805Z,960.68
2018-12-17T01:20:46.873Z,960.66
2018-12-17T01:21:45.110Z,960.67
2018-12-17T01:22:46.774Z,960.68
2018-12-17T01:23:45.257Z,960.69
2018-12-17T01:24:46.775Z,960.69
2018-12-17T01:25:45.124Z,960.71
2018-12-17T01:26:46.053Z,960.68
2018-12-17T01:27:46.831Z,960.75
2018-12-17T01:28:46.675Z,960.77
2018-12-17T01:29:53.094Z,960.69
2018-12-17T01:30:57.536Z,960.70
2018-12-17T01:32:49.681Z,960.70
2018-12-17T01:46:25.766Z,960.75
2018-12-17T01:46:49.346Z,960.74
2018-12-17T01:47:49.374Z,960.76
2018-12-17T01:48:49.284Z,960.71
2018-12-17T01:49:49.223Z,960.74
2018-12-17T02:19:01.743Z,960.86
2018-12-17T02:19:27.392Z,960.88
2018-12-17T02:21:41.677Z,960.89
2018-12-17T02:22:20.019Z,960.89
2018-12-17T02:23:40.062Z,960.89
2018-12-17T02:24:20.973Z,960.92
2018-12-17T02:25:26.003Z,960.88
2018-12-17T02:26:21.663Z,960.92
2018-12-17T02:27:21.563Z,960.94
2018-12-17T02:28:19.843Z,960.90
2018-12-17T02:31:04.007Z,960.98
2018-12-17T02:33:36.044Z,961.06
2018-12-17T02:34:34.587Z,961.02
2018-12-17T02:36:10.775Z,961.00
2018-12-17T02:37:53.808Z,961.04
2018-12-17T02:38:33.187Z,961.06
2018-12-17T03:03:36.032Z,961.16
2018-12-17T03:12:43.029Z,961.11
2018-12-17T03:21:52.150Z,961.16
2018-12-17T03:24:37.987Z,961.18
2018-12-17T03:26:48.766Z,961.13
2018-12-17T03:27:48.249Z,961.13
2018-12-17T03:30:27.901Z,961.14
2018-12-17T03:31:20.117Z,961.11
2018-12-17T03:32:19.960Z,961.07
2018-12-17T03:33:20.418Z,961.13
2018-12-17T03:34:19.944Z,961.08
2018-12-17T03:35:19.620Z,961.14
2018-12-17T03:36:19.604Z,961.14
2018-12-17T03:37:19.621Z,961.14
2018-12-17T03:38:19.678Z,961.12
2018-12-17T03:39:20.720Z,961.10
2018-12-17T03:40:21.619Z,961.14
2018-12-17T03:41:19.654Z,961.14
2018-12-17T03:42:19.966Z,961.11
2018-12-17T03:43:19.775Z,961.16
2018-12-17T03:44:24.122Z,961.20
2018-12-17T03:45:21.106Z,961.21
2018-12-17T03:46:19.519Z,961.18
2018-12-17T03:47:19.649Z,961.22
2018-12-17T03:48:19.503Z,961.25
2018-12-17T03:49:19.485Z,961.20
2018-12-17T03:50:19.446Z,961.25
2018-12-17T03:51:19.394Z,961.23
2018-12-17T03:52:19.405Z,961.25
2018-12-17T03:53:19.374Z,961.27
2018-12-17T03:54:19.364Z,961.24
2018-12-17T03:55:19.465Z,961.27
2018-12-17T03:56:19.457Z,961.33
2018-12-17T03:57:19.467Z,961.33
2018-12-17T03:58:19.484Z,961.33
2018-12-17T03:59:20.189Z,961.34
2018-12-17T04:00:20.112Z,961.37
2018-12-17T04:01:19.447Z,961.37
2018-12-17T04:03:47.756Z,961.47
2018-12-17T04:17:26.757Z,961.70
2018-12-17T04:21:02.222Z,961.75
2018-12-17T04:21:54.166Z,961.71
2018-12-17T04:23:02.090Z,961.70
2018-12-17T04:24:52.494Z,961.68
2018-12-17T04:32:48.055Z,961.79
2018-12-17T04:35:15.960Z,961.85
2018-12-17T04:36:15.937Z,961.86
2018-12-17T04:37:15.840Z,961.89
2018-12-17T04:38:15.809Z,961.83
2018-12-17T04:39:15.530Z,961.87
2018-12-17T04:40:15.649Z,961.92
2018-12-17T04:41:15.501Z,961.89
2018-12-17T04:42:22.913Z,961.92
2018-12-17T04:44:09.194Z,962.00
2018-12-17T04:45:09.167Z,961.96
2018-12-17T04:47:02.621Z,961.98
2018-12-17T04:48:02.489Z,961.92
2018-12-17T04:49:56.056Z,961.97
2018-12-17T04:50:56.097Z,961.99
2018-12-17T04:52:49.065Z,962.00
2018-12-17T04:53:49.997Z,962.00
2018-12-17T04:55:42.736Z,962.04
2018-12-17T04:56:44.465Z,962.07
2018-12-17T04:58:36.100Z,962.02
2018-12-17T04:59:36.064Z,961.99
2018-12-17T05:01:28.767Z,962.07
2018-12-17T05:02:28.990Z,962.07
2018-12-17T05:03:28.674Z,962.04
2018-12-17T05:04:28.734Z,962.09
2018-12-17T05:05:28.602Z,962.09
2018-12-17T05:06:28.570Z,962.10
2018-12-17T05:07:28.558Z,962.10
2018-12-17T05:08:28.557Z,962.14
2018-12-17T05:09:28.541Z,962.17
2018-12-17T05:10:28.541Z,962.16
2018-12-17T05:11:28.556Z,962.20
2018-12-17T05:12:40.640Z,962.20
2018-12-17T05:13:40.594Z,962.15
2018-12-17T05:15:33.558Z,962.19
2018-12-17T05:16:33.447Z,962.22
2018-12-17T05:18:26.285Z,962.23
2018-12-17T05:19:26.250Z,962.25
2018-12-17T05:21:20.163Z,962.32
2018-12-17T05:22:20.084Z,962.31
2018-12-17T05:24:13.382Z,962.29
2018-12-17T05:25:13.041Z,962.29
2018-12-17T05:27:05.954Z,962.38
2018-12-17T05:28:05.745Z,962.35
2018-12-17T05:29:59.529Z,962.39
2018-12-17T05:30:59.150Z,962.41
2018-12-17T05:32:52.978Z,962.44
2018-12-17T05:33:52.855Z,962.43
2018-12-17T05:35:45.859Z,962.44
2018-12-17T05:36:45.551Z,962.43
2018-12-17T05:38:38.593Z,962.52
2018-12-17T05:39:38.520Z,962.51
2018-12-17T05:41:31.361Z,962.56
2018-12-17T05:42:31.311Z,962.55
2018-12-17T05:44:24.623Z,962.57
2018-12-17T05:45:24.595Z,962.58
2018-12-17T05:47:17.457Z,962.53
2018-12-17T05:48:24.603Z,962.58
2018-12-17T05:50:11.029Z,962.58
2018-12-17T05:51:10.721Z,962.64
2018-12-17T05:52:10.747Z,962.64
2018-12-17T05:53:10.716Z,962.66
2018-12-17T05:54:10.779Z,962.72
2018-12-17T05:55:10.622Z,962.71
2018-12-17T05:56:10.623Z,962.71
2018-12-17T05:57:10.597Z,962.72
2018-12-17T05:58:10.579Z,962.71
2018-12-17T05:59:10.618Z,962.73
2018-12-17T06:00:10.563Z,962.75
2018-12-17T06:01:10.551Z,962.82
2018-12-17T06:02:10.542Z,962.83
2018-12-17T06:03:10.530Z,962.83
2018-12-17T06:04:10.534Z,962.88
2018-12-17T06:05:10.520Z,962.77
2018-12-17T06:06:10.503Z,962.80
2018-12-17T06:07:10.519Z,962.81
2018-12-17T06:20:09.018Z,962.99
2018-12-17T06:21:08.770Z,963.07
2018-12-17T06:23:05.585Z,963.04
2018-12-17T06:24:04.028Z,963.06
2018-12-17T06:25:03.454Z,963.09
2018-12-17T06:26:03.431Z,963.08
2018-12-17T06:27:04.397Z,963.12
2018-12-17T06:28:04.425Z,963.12
2018-12-17T06:29:03.430Z,963.12
2018-12-17T06:30:03.160Z,963.13
2018-12-17T06:31:03.122Z,963.12
2018-12-17T06:32:08.206Z,963.09
2018-12-17T06:33:03.109Z,963.12
2018-12-17T06:34:03.086Z,963.20
2018-12-17T06:35:03.078Z,963.18
2018-12-17T06:36:03.072Z,963.21
2018-12-17T06:37:03.153Z,963.14
2018-12-17T06:38:03.058Z,963.22
2018-12-17T06:39:03.094Z,963.21
2018-12-17T06:40:09.999Z,963.22
2018-12-17T06:41:03.067Z,963.21
2018-12-17T06:42:03.294Z,963.28
2018-12-17T06:43:03.031Z,963.27
2018-12-17T06:44:03.021Z,963.26
2018-12-17T06:45:03.031Z,963.24
2018-12-17T06:46:03.000Z,963.28
2018-12-17T06:47:03.084Z,963.29
2018-12-17T06:48:03.750Z,963.31
2018-12-17T06:49:03.076Z,963.34
2018-12-17T06:50:04.402Z,963.31
2018-12-17T06:52:58.144Z,963.42
2018-12-17T06:53:57.808Z,963.41
2018-12-17T06:55:52.478Z,963.44
2018-12-17T06:56:51.129Z,963.47
2018-12-17T06:57:51.031Z,963.47
2018-12-17T06:58:50.812Z,963.50
2018-12-17T06:59:50.992Z,963.56
2018-12-17T07:00:50.638Z,963.54
2018-12-17T07:01:50.717Z,963.55
2018-12-17T07:02:50.579Z,963.56
2018-12-17T07:03:50.847Z,963.58
2018-12-17T07:04:52.152Z,963.57
2018-12-17T07:05:50.545Z,963.61
2018-12-17T07:06:50.539Z,963.66
2018-12-17T07:07:50.546Z,963.70
2018-12-17T07:08:50.788Z,963.74
2018-12-17T07:09:50.512Z,963.75
2018-12-17T07:10:50.503Z,963.75
2018-12-17T07:11:50.495Z,963.75
2018-12-17T07:12:50.493Z,963.79
2018-12-17T07:13:50.483Z,963.79
2018-12-17T07:14:50.470Z,963.78
2018-12-17T07:15:50.459Z,963.81
2018-12-17T07:16:50.447Z,963.74
2018-12-17T07:17:50.455Z,963.81
2018-12-17T07:18:50.434Z,963.77
2018-12-17T07:19:50.432Z,963.72
2018-12-17T07:20:50.428Z,963.78
2018-12-17T07:21:50.405Z,963.74
2018-12-17T07:22:50.397Z,963.79
2018-12-17T07:23:50.391Z,963.78
2018-12-17T07:24:50.381Z,963.82
2018-12-17T07:25:50.372Z,963.80
2018-12-17T07:26:50.370Z,963.79
2018-12-17T07:27:50.355Z,963.82
2018-12-17T07:28:50.345Z,963.81
2018-12-17T07:29:50.340Z,963.85
2018-12-17T07:30:50.334Z,963.82
2018-12-17T07:31:50.322Z,963.86
2018-12-17T07:32:50.324Z,963.87
2018-12-17T07:33:50.305Z,963.85
2018-12-17T07:34:50.291Z,963.91
2018-12-17T07:35:50.284Z,963.95
2018-12-17T07:36:50.275Z,963.91
2018-12-17T07:37:50.267Z,963.97
2018-12-17T07:38:50.264Z,963.94
2018-12-17T07:39:50.252Z,964.00
2018-12-17T07:40:50.244Z,964.02
2018-12-17T07:41:50.231Z,963.95
2018-12-17T07:42:50.225Z,964.07
2018-12-17T07:43:50.226Z,963.99
2018-12-17T07:44:50.209Z,964.05
2018-12-17T07:45:50.198Z,964.08
2018-12-17T07:46:50.191Z,964.07
2018-12-17T07:47:50.183Z,964.05
2018-12-17T07:48:50.188Z,964.13
2018-12-17T07:49:50.165Z,964.07
2018-12-17T07:50:50.154Z,964.15
2018-12-17T07:51:50.164Z,964.15
2018-12-17T07:52:50.139Z,964.17
2018-12-17T07:53:50.155Z,964.17
2018-12-17T07:54:50.123Z,964.17
2018-12-17T07:55:50.127Z,964.18
2018-12-17T07:56:50.126Z,964.19
2018-12-17T07:57:50.183Z,964.21
2018-12-17T07:58:50.088Z,964.22
2018-12-17T07:59:56.525Z,964.21
2018-12-17T08:00:50.072Z,964.22
2018-12-17T08:01:50.065Z,964.26
2018-12-17T08:02:50.056Z,964.26
2018-12-17T08:03:50.048Z,964.24
2018-12-17T08:04:50.041Z,964.20
2018-12-17T08:05:50.031Z,964.22
2018-12-17T08:06:50.024Z,964.26
2018-12-17T08:07:50.014Z,964.20
2018-12-17T08:08:50.007Z,964.24
2018-12-17T08:09:49.999Z,964.23
2018-12-17T08:10:50.004Z,964.23
2018-12-17T08:11:49.984Z,964.21
2018-12-17T08:12:49.986Z,964.29
2018-12-17T08:13:49.978Z,964.29
2018-12-17T08:14:49.960Z,964.29
2018-12-17T08:15:49.963Z,964.25
2018-12-17T08:16:49.944Z,964.29
2018-12-17T08:17:49.935Z,964.29
2018-12-17T08:18:49.969Z,964.34
2018-12-17T08:19:49.921Z,964.35
2018-12-17T08:20:49.916Z,964.36
2018-12-17T08:21:49.903Z,964.45
2018-12-17T08:22:49.906Z,964.47
2018-12-17T08:23:49.888Z,964.41
2018-12-17T08:24:49.880Z,964.48
2018-12-17T08:25:49.875Z,964.45
2018-12-17T08:26:49.864Z,964.45
2018-12-17T08:27:49.864Z,964.46
2018-12-17T08:28:49.852Z,964.50
2018-12-17T08:29:49.876Z,964.52
2018-12-17T08:30:49.839Z,964.55
2018-12-17T08:31:49.832Z,964.60
2018-12-17T08:32:49.833Z,964.59
2018-12-17T08:33:49.829Z,964.49
2018-12-17T08:34:49.814Z,964.57
2018-12-17T08:35:49.827Z,964.62
2018-12-17T08:36:49.794Z,964.63
2018-12-17T08:37:49.783Z,964.58
2018-12-17T08:38:49.803Z,964.65
2018-12-17T08:39:49.773Z,964.59
2018-12-17T08:40:49.767Z,964.71
2018-12-17T08:41:49.778Z,964.64
2018-12-17T08:42:49.747Z,964.59
2018-12-17T08:43:49.741Z,964.65
2018-12-17T08:44:49.748Z,964.66
2018-12-17T08:45:49.724Z,964.64
2018-12-17T08:46:49.718Z,964.58
2018-12-17T08:47:49.714Z,964.68
2018-12-17T08:48:49.703Z,964.68
2018-12-17T08:49:49.695Z,964.72
2018-12-17T08:50:49.686Z,964.75
2018-12-17T08:51:49.685Z,964.77
2018-12-17T08:52:49.684Z,964.94
2018-12-17T08:53:49.666Z,964.89
2018-12-17T08:54:49.670Z,964.70
2018-12-17T08:55:49.651Z,964.72
2018-12-17T08:56:49.644Z,964.90
2018-12-17T08:57:49.638Z,964.83
2018-12-17T08:58:49.627Z,965.00
2018-12-17T08:59:49.623Z,964.92
2018-12-17T09:00:49.618Z,965.03
2018-12-17T09:01:49.615Z,965.03
2018-12-17T09:02:49.606Z,965.04
2018-12-17T09:03:49.606Z,965.00
2018-12-17T09:04:49.591Z,965.19
2018-12-17T09:05:49.593Z,965.17
2018-12-17T09:06:49.580Z,965.06
2018-12-17T09:07:49.576Z,965.00
2018-12-17T09:08:49.569Z,965.02
2018-12-17T09:09:49.565Z,965.12
2018-12-17T09:10:49.561Z,965.01
2018-12-17T09:11:49.558Z,965.13
2018-12-17T09:12:49.571Z,965.00
2018-12-17T09:13:49.546Z,964.97
2018-12-17T09:14:49.546Z,964.91
2018-12-17T09:15:49.542Z,964.94
2018-12-17T09:16:49.535Z,964.97
2018-12-17T09:17:49.533Z,964.95
2018-12-17T09:18:49.527Z,964.91
2018-12-17T09:19:49.522Z,964.95
2018-12-17T09:20:49.518Z,965.01
2018-12-17T09:21:49.529Z,965.00
2018-12-17T09:22:49.511Z,965.00
2018-12-17T09:23:49.506Z,964.92
2018-12-17T09:24:49.504Z,964.93
2018-12-17T09:25:49.504Z,964.95
2018-12-17T09:26:49.555Z,964.99
2018-12-17T09:27:49.493Z,964.99
2018-12-17T09:28:49.486Z,965.03
2018-12-17T09:29:49.481Z,965.01
2018-12-17T09:30:49.480Z,965.05
2018-12-17T09:31:49.483Z,965.19
2018-12-17T09:32:49.501Z,965.55
2018-12-17T09:33:49.464Z,965.64
2018-12-17T09:34:49.460Z,965.46
2018-12-17T09:35:49.461Z,965.41
2018-12-17T09:36:49.460Z,965.57
2018-12-17T09:37:49.452Z,965.23
2018-12-17T09:38:49.455Z,965.18
2018-12-17T09:39:49.451Z,965.16
2018-12-17T09:40:49.450Z,965.18
2018-12-17T09:41:49.447Z,965.22
2018-12-17T09:42:49.447Z,965.17
2018-12-17T09:43:49.448Z,965.23
2018-12-17T09:44:49.445Z,965.30
2018-12-17T09:45:49.446Z,965.39
2018-12-17T09:46:49.444Z,965.58
2018-12-17T09:47:49.458Z,965.45
2018-12-17T09:48:49.436Z,965.27
2018-12-17T09:49:49.437Z,965.28
2018-12-17T09:50:49.437Z,965.32
2018-12-17T09:51:49.447Z,965.17
2018-12-17T09:52:49.435Z,965.22
2018-12-17T09:53:49.430Z,965.31
2018-12-17T09:54:49.432Z,965.20
2018-12-17T09:55:49.428Z,965.26
2018-12-17T09:56:49.435Z,965.37
2018-12-17T09:57:49.424Z,965.25
2018-12-17T09:58:49.425Z,965.23
2018-12-17T09:59:49.420Z,965.18
2018-12-17T10:00:49.423Z,965.18
2018-12-17T10:01:49.414Z,965.19
2018-12-17T10:02:49.413Z,965.21
2018-12-17T10:03:49.413Z,965.23
2018-12-17T10:04:49.422Z,965.24
2018-12-17T10:05:49.406Z,965.35
2018-12-17T10:06:49.410Z,965.29
2018-12-17T10:07:49.403Z,965.23
2018-12-17T10:08:49.399Z,965.21
2018-12-17T10:09:49.395Z,965.20
2018-12-17T10:10:49.392Z,965.30
2018-12-17T10:11:49.389Z,965.27
2018-12-17T10:12:49.386Z,965.15
2018-12-17T10:13:49.384Z,965.40
2018-12-17T10:14:49.380Z,965.17
2018-12-17T10:15:49.384Z,965.21
2018-12-17T10:16:49.373Z,965.28
2018-12-17T10:17:49.366Z,965.21
2018-12-17T10:18:49.367Z,965.26
2018-12-17T10:19:49.358Z,965.41
2018-12-17T10:20:49.358Z,965.34
2018-12-17T10:21:49.358Z,965.58
2018-12-17T10:22:49.349Z,965.49
2018-12-17T10:23:49.348Z,965.42
2018-12-17T10:24:49.347Z,965.28
2018-12-17T10:25:49.341Z,965.14
2018-12-17T10:26:49.341Z,965.32
2018-12-17T10:27:49.332Z,965.14
2018-12-17T10:28:49.339Z,965.26
2018-12-17T10:29:49.326Z,965.30
2018-12-17T10:30:49.325Z,965.40
2018-12-17T10:31:49.319Z,965.19
2018-12-17T10:32:49.316Z,965.16
2018-12-17T10:33:49.312Z,965.34
2018-12-17T10:34:49.321Z,965.42
2018-12-17T10:35:49.305Z,965.40
2018-12-17T10:36:49.305Z,965.42
2018-12-17T10:37:49.298Z,965.30
2018-12-17T10:38:49.295Z,965.29
2018-12-17T10:39:49.293Z,965.24
2018-12-17T10:40:49.288Z,965.17
2018-12-17T10:41:49.283Z,965.18
2018-12-17T10:42:49.279Z,965.13
2018-12-17T10:43:49.277Z,965.27
2018-12-17T10:44:49.276Z,965.19
2018-12-17T10:45:49.270Z,965.35
2018-12-17T10:46:49.266Z,965.14
2018-12-17T10:47:49.265Z,965.19
2018-12-17T10:48:49.268Z,965.08
2018-12-17T10:49:49.267Z,965.11
2018-12-17T10:50:49.252Z,965.11
2018-12-17T10:51:49.253Z,965.08
2018-12-17T10:52:49.247Z,965.07
2018-12-17T10:53:49.240Z,965.14
2018-12-17T10:54:49.235Z,965.04
2018-12-17T10:55:49.240Z,965.06
2018-12-17T10:56:49.229Z,965.01
2018-12-17T10:57:49.222Z,964.95
2018-12-17T10:58:49.219Z,965.05
2018-12-17T10:59:49.247Z,965.02
2018-12-17T11:00:49.223Z,964.99
2018-12-17T11:01:49.221Z,964.94
2018-12-17T11:02:49.215Z,965.03
2018-12-17T11:03:49.196Z,965.03
2018-12-17T11:04:49.196Z,965.08
2018-12-17T11:05:49.187Z,965.06
2018-12-17T11:06:49.191Z,964.99
2018-12-17T11:07:49.179Z,965.01
2018-12-17T11:08:49.177Z,965.04
2018-12-17T11:09:49.169Z,965.07
2018-12-17T11:10:49.166Z,965.14
2018-12-17T11:11:49.165Z,965.08
2018-12-17T11:12:49.152Z,965.00
2018-12-17T11:13:49.146Z,965.08
2018-12-17T11:14:49.142Z,965.02
2018-12-17T11:15:49.135Z,965.05
2018-12-17T11:16:49.130Z,965.05
2018-12-17T11:17:49.130Z,965.03
2018-12-17T11:18:49.119Z,965.07
2018-12-17T11:19:49.132Z,965.08
2018-12-17T11:20:49.135Z,965.06
2018-12-17T11:21:49.107Z,965.04
2018-12-17T11:22:49.100Z,965.08
2018-12-17T11:23:49.094Z,965.05
2018-12-17T11:24:49.087Z,965.06
2018-12-17T11:25:49.090Z,965.05
2018-12-17T11:26:49.083Z,965.07
2018-12-17T11:27:49.075Z,965.09
2018-12-17T11:28:49.065Z,964.95
2018-12-17T11:29:49.063Z,965.01
2018-12-17T11:30:49.058Z,965.00
2018-12-17T11:31:49.048Z,965.02
2018-12-17T11:32:49.046Z,965.01
2018-12-17T11:33:49.045Z,964.99
2018-12-17T11:34:49.034Z,965.04
2018-12-17T11:35:49.029Z,964.93
2018-12-17T11:36:49.022Z,965.01
2018-12-17T11:37:49.018Z,965.01
2018-12-17T11:38:49.011Z,964.99
2018-12-17T11:39:49.026Z,965.04
2018-12-17T11:40:49.018Z,964.99
2018-12-17T11:41:49.009Z,964.98
2018-12-17T11:42:48.989Z,964.98
2018-12-17T11:43:48.984Z,964.96
2018-12-17T11:44:48.982Z,964.91
2018-12-17T11:45:48.976Z,964.92
2018-12-17T11:46:48.965Z,964.92
2018-12-17T11:47:48.966Z,964.97
2018-12-17T11:48:48.964Z,964.96
2018-12-17T11:49:48.952Z,964.90
2018-12-17T11:50:48.946Z,964.87
2018-12-17T11:51:48.940Z,964.86
2018-12-17T11:52:48.937Z,964.91
2018-12-17T11:53:48.931Z,964.85
2018-12-17T11:54:48.924Z,964.89
2018-12-17T11:55:48.946Z,964.94
2018-12-17T11:56:48.915Z,964.91
2018-12-17T11:57:48.905Z,964.90
2018-12-17T11:58:48.914Z,964.98
2018-12-17T11:59:48.893Z,964.86
2018-12-17T12:00:53.730Z,964.85
2018-12-17T12:01:48.884Z,964.81
2018-12-17T12:02:48.877Z,964.93
2018-12-17T12:03:48.873Z,964.96
2018-12-17T12:04:48.868Z,964.90
2018-12-17T12:05:48.861Z,964.91
2018-12-17T12:06:48.856Z,964.85
2018-12-17T12:07:48.850Z,964.85
2018-12-17T12:08:48.850Z,964.88
2018-12-17T12:09:48.858Z,964.88
2018-12-17T12:10:48.853Z,964.88
2018-12-17T12:11:48.825Z,964.89
2018-12-17T12:12:48.822Z,964.97
2018-12-17T12:13:48.817Z,964.93
2018-12-17T12:14:48.806Z,964.96
2018-12-17T12:15:48.803Z,965.00
2018-12-17T12:16:48.798Z,964.92
2018-12-17T12:17:48.794Z,964.96
2018-12-17T12:18:48.784Z,965.03
2018-12-17T12:19:48.779Z,964.83
2018-12-17T12:20:48.775Z,964.84
2018-12-17T12:21:48.766Z,964.97
2018-12-17T12:22:48.761Z,965.00
2018-12-17T12:23:48.759Z,964.97
2018-12-17T12:24:48.749Z,965.01
2018-12-17T12:25:48.744Z,964.99
2018-12-17T12:26:48.734Z,965.03
2018-12-17T12:27:48.736Z,964.96
2018-12-17T12:28:48.724Z,964.90
2018-12-17T12:29:48.723Z,964.93
2018-12-17T12:30:48.711Z,964.96
2018-12-17T12:31:48.735Z,964.94
2018-12-17T12:32:48.703Z,964.93
2018-12-17T12:33:48.693Z,964.97
2018-12-17T12:34:48.687Z,964.89
2018-12-17T12:35:48.681Z,964.84
2018-12-17T12:36:48.676Z,964.87
2018-12-17T12:37:48.668Z,964.93
2018-12-17T12:38:48.661Z,964.93
2018-12-17T12:39:48.652Z,964.90
2018-12-17T12:40:48.647Z,964.96
2018-12-17T12:41:48.641Z,964.91
2018-12-17T12:42:51.762Z,964.83
2018-12-17T12:43:48.648Z,964.95
2018-12-17T12:44:48.644Z,965.00
2018-12-17T12:45:48.622Z,964.98
2018-12-17T12:46:48.673Z,965.01
2018-12-17T12:47:48.614Z,965.01
2018-12-17T12:48:48.595Z,965.09
2018-12-17T12:49:48.592Z,965.13
2018-12-17T12:50:48.584Z,965.06
2018-12-17T12:51:50.181Z,965.13
2018-12-17T12:52:48.569Z,965.15
2018-12-17T12:53:48.585Z,965.17
2018-12-17T12:54:48.559Z,965.13
2018-12-17T12:55:48.551Z,965.21
2018-12-17T12:56:48.542Z,965.02
2018-12-17T12:57:48.537Z,965.12
2018-12-17T12:58:48.529Z,965.15
2018-12-17T12:59:48.521Z,965.17
2018-12-17T13:00:48.518Z,965.14
2018-12-17T13:01:48.515Z,965.22
2018-12-17T13:02:48.503Z,965.19
2018-12-17T13:03:48.495Z,965.20
2018-12-17T13:04:48.488Z,965.19
2018-12-17T13:05:48.480Z,965.19
2018-12-17T13:06:48.478Z,965.14
2018-12-17T13:07:48.471Z,965.31
2018-12-17T13:08:48.472Z,965.20
2018-12-17T13:09:48.454Z,965.21
2018-12-17T13:10:48.448Z,965.24
2018-12-17T13:11:48.463Z,965.27
2018-12-17T13:12:48.444Z,965.27
2018-12-17T13:13:48.443Z,965.18
2018-12-17T13:14:48.422Z,965.25
2018-12-17T13:15:48.469Z,965.23
2018-12-17T13:16:48.416Z,965.28
2018-12-17T13:17:48.756Z,965.23
2018-12-17T13:18:48.393Z,965.28
2018-12-17T13:19:48.630Z,965.23
2018-12-17T13:20:48.382Z,965.19
2018-12-17T13:21:48.379Z,965.21
2018-12-17T13:22:48.367Z,965.24
2018-12-17T13:23:48.358Z,965.29
2018-12-17T13:24:48.351Z,965.26
2018-12-17T13:25:48.347Z,965.22
2018-12-17T13:26:48.338Z,965.31
2018-12-17T13:27:48.331Z,965.40
2018-12-17T13:28:48.329Z,965.36
2018-12-17T13:29:48.321Z,965.43
2018-12-17T13:30:48.314Z,965.42
2018-12-17T13:31:48.314Z,965.37
2018-12-17T13:32:48.296Z,965.46
2018-12-17T13:33:48.288Z,965.42
2018-12-17T13:34:48.286Z,965.44
2018-12-17T13:35:48.275Z,965.45
2018-12-17T13:36:48.269Z,965.50
2018-12-17T13:37:48.281Z,965.51
2018-12-17T13:38:48.271Z,965.58
2018-12-17T13:39:48.250Z,965.57
2018-12-17T13:40:48.267Z,965.60
2018-12-17T13:41:48.234Z,965.62
2018-12-17T13:42:48.228Z,965.54
2018-12-17T13:43:48.230Z,965.61
2018-12-17T13:44:48.213Z,965.65
2018-12-17T13:45:48.236Z,965.64
2018-12-17T13:46:48.219Z,965.70
2018-12-17T13:47:48.207Z,965.78
2018-12-17T13:48:48.183Z,965.79
2018-12-17T13:49:48.241Z,965.72
2018-12-17T13:50:48.233Z,965.84
2018-12-17T13:51:48.160Z,965.82
2018-12-17T13:52:48.217Z,965.80
2018-12-17T13:53:51.803Z,965.81
2018-12-17T13:54:48.156Z,965.82
2018-12-17T13:55:48.257Z,965.85
2018-12-17T13:56:51.825Z,965.81
2018-12-17T13:57:48.118Z,965.92
2018-12-17T14:01:07.325Z,965.90
2018-12-17T14:02:09.708Z,965.90
2018-12-17T14:03:07.338Z,965.84
2018-12-17T14:04:08.240Z,965.88
2018-12-17T14:05:04.307Z,965.92
2018-12-17T14:06:08.658Z,965.92
2018-12-17T14:07:10.223Z,965.90
2018-12-17T14:08:10.771Z,965.90
2018-12-17T14:09:25.714Z,965.88
2018-12-17T14:10:02.869Z,965.83
2018-12-17T14:11:04.882Z,965.83
2018-12-17T14:12:11.924Z,965.89
2018-12-17T14:13:56.661Z,965.95
2018-12-17T14:15:04.328Z,965.96
2018-12-17T14:16:49.498Z,965.95
2018-12-17T14:17:49.283Z,965.92
2018-12-17T14:19:42.218Z,966.01
2018-12-17T14:20:42.093Z,966.02
2018-12-17T14:22:35.153Z,966.05
2018-12-17T14:23:34.940Z,965.99
2018-12-17T14:25:28.443Z,965.96
2018-12-17T14:26:28.391Z,966.01
2018-12-17T14:27:28.301Z,966.01
2018-12-17T14:28:28.458Z,966.02
2018-12-17T14:29:28.470Z,966.03
2018-12-17T14:30:28.247Z,966.09
2018-12-17T14:31:28.984Z,965.99
2018-12-17T14:32:28.211Z,965.96
2018-12-17T14:33:28.204Z,966.02
2018-12-17T14:34:28.172Z,966.00
2018-12-17T14:35:28.081Z,965.99
2018-12-17T14:36:37.333Z,966.05
2018-12-17T14:38:21.855Z,966.09
2018-12-17T14:39:21.734Z,966.08
2018-12-17T14:41:17.173Z,966.16
2018-12-17T14:42:16.889Z,966.16
2018-12-17T14:44:09.965Z,966.22
2018-12-17T14:45:10.301Z,966.25
2018-12-17T14:47:04.277Z,966.23
2018-12-17T14:48:03.654Z,966.24
2018-12-17T14:49:56.751Z,966.28
2018-12-17T14:50:56.510Z,966.29
2018-12-17T14:52:50.098Z,966.21
2018-12-17T14:53:49.994Z,966.30
2018-12-17T14:55:45.373Z,966.24
2018-12-17T14:56:43.379Z,966.30
2018-12-17T14:58:44.093Z,966.37
2018-12-17T14:59:44.255Z,966.32
2018-12-17T15:01:35.741Z,966.39
2018-12-17T15:02:30.173Z,966.42
2018-12-17T15:04:23.348Z,966.36
2018-12-17T15:05:23.063Z,966.43
2018-12-17T15:07:16.059Z,966.40
2018-12-17T15:08:15.937Z,966.42
2018-12-17T15:10:09.971Z,966.46
2018-12-17T15:11:09.856Z,966.41
2018-12-17T15:13:02.906Z,966.37
2018-12-17T15:14:10.550Z,966.44
2018-12-17T15:15:56.788Z,966.39
2018-12-17T15:16:55.750Z,966.42
2018-12-17T15:18:03.027Z,966.47
2018-12-17T15:19:49.123Z,966.51
2018-12-17T15:20:48.828Z,966.47
2018-12-17T15:21:48.724Z,966.48
2018-12-17T15:22:49.062Z,966.50
2018-12-17T15:23:48.671Z,966.46
2018-12-17T15:24:48.623Z,966.54
2018-12-17T15:25:48.613Z,966.56
2018-12-17T15:26:48.618Z,966.51
2018-12-17T15:27:48.605Z,966.55
2018-12-17T15:28:56.346Z,966.60
2018-12-17T15:30:42.354Z,966.70
2018-12-17T15:31:43.171Z,966.70
2018-12-17T15:35:07.249Z,966.70
2018-12-17T15:36:07.316Z,966.71
2018-12-17T15:38:00.719Z,966.76
2018-12-17T15:39:00.543Z,966.81
2018-12-17T15:40:53.506Z,966.99
2018-12-17T15:41:53.443Z,967.02
2018-12-17T15:43:46.391Z,967.04
2018-12-17T15:44:46.238Z,967.08
2018-12-17T15:46:39.585Z,967.15
2018-12-17T15:47:39.564Z,967.18